• Join FlightAware (Why Join?)
  • Login
  • US Flag 
07:50AM EST


 

Airport Tracker/Info


-or-


 

Live Flight TrackerFlight Track Log ✈ WIG7400 ✈ 20-May-2013 ✈ KACK - KPVD

Flight Track Log - Related Links

Times and Time Zones

All times are in EDT time to prevent confusion due to time zone crossing. See the WIG7400 flight status page for this flight to view local times or setup timezone preferences in your user account.

Time Position Orientation Groundspeed Altitude Reporting Facility
EDT Latitude Longitude Course Direction KTS MPH feet Rate Location/Type
05:53PM 41.3073 -70.2957 288° West  Level FlightAware Approximate
05:54PM 41.3175 -70.3364 288° West  Level FlightAware Approximate
05:55PM 41.3276 -70.3771 288° West  Level FlightAware Approximate
05:56PM 41.3378 -70.4178 288° West  Level FlightAware Approximate
05:57PM 41.3480 -70.4585 288° West  Level FlightAware Approximate
05:57PM 41.3539 -70.4906 298° West 141 162 3,900  Level Boston Center
05:58PM 41.3582 -70.4992 288° West  Level FlightAware Approximate
05:58PM 41.3672 -70.5397 290° West 136 157 3,900  Level Boston Center
05:59PM 41.3684 -70.5400 288° West  Level FlightAware Approximate
05:59PM 41.3828 -70.5864 294° West 135 155 3,900  Level Boston Center
06:00PM 41.3785 -70.5807 288° West  Level FlightAware Approximate
06:00PM 41.3961 -70.6358 290° West 136 157 3,900  Level Boston Center
06:01PM 41.3912 -70.6201 298° West  Level FlightAware Approximate
06:01PM 41.4197 -70.6794 306° West 141 162 3,900  Level Boston Center
06:02PM 41.4060 -70.6582 298° West  Level FlightAware Approximate
06:02PM 41.4392 -70.7233 301° West 141 162 3,900  Level Boston Center
06:03PM 41.4564 -70.7700 296° West 142 163 3,900  Level Boston Center
06:04PM 41.4739 -70.8167 297° West 142 163 3,900  Level Boston Center
06:05PM 41.4931 -70.8603 300° West 142 163 4,000  Climbing Boston Center
06:06PM 41.5147 -70.9014 305° West 142 163 4,000  Level Boston Center
06:07PM 41.5361 -70.9481 301° West 144 166 4,000  Level Boston Center
06:08PM 41.5617 -70.9892 310° West 145 167 4,000  Level Boston Center
06:09PM 41.5853 -71.0386 303° West 143 165 4,000  Level Boston Center
06:10PM 41.6067 -71.0825 303° West 144 166 4,000  Level Boston Center
06:11PM 41.6278 -71.1236 304° West 142 163 4,000 -120 Level Boston Center
06:12PM 41.6492 -71.1706 301° West 144 166 3,800 -300 Descending Boston Center
06:13PM 41.6769 -71.2256 304° West 149 171 3,400 -480 Descending Boston Center
06:14PM 41.7003 -71.2694 305° West 150 173 2,900 -600 Descending Boston Center
06:15PM 41.7217 -71.3136 303° West 153 176 2,300 -660 Descending Boston Center
06:16PM 41.7450 -71.3633 302° West 151 174 1,700 -780 Descending Boston Center
06:17PM 41.7558 -71.3992 292° West 115 132 800 -780 Descending Boston Center
06:18PM 41.7350 -71.4192 216° Southwest 97 112 200 -600 Descending Boston Center
06:20PM 41.7240 -71.4282 174° South  Level Estimated
06:27PM 41.7240 -71.4282 298° West  Level Estimated
06:28PM 41.7240 -71.4282 298° West  Level Estimated